createdAt,value
2018-06-21T00:00:17.169Z,86.87
2018-06-21T00:03:20.504Z,86.99
2018-06-21T00:06:23.675Z,87.21
2018-06-21T00:09:26.727Z,87.29
2018-06-21T00:12:30.872Z,87.72
2018-06-21T00:15:34.177Z,87.58
2018-06-21T00:18:37.509Z,87.08
2018-06-21T00:21:40.527Z,87.90
2018-06-21T00:24:43.589Z,87.83
2018-06-21T00:27:47.909Z,87.25
2018-06-21T00:30:51.161Z,87.66
2018-06-21T00:33:54.374Z,87.82
2018-06-21T00:36:57.572Z,87.76
2018-06-21T00:40:00.806Z,88.72
2018-06-21T00:43:04.011Z,88.47
2018-06-21T00:46:07.191Z,89.05
2018-06-21T00:49:10.377Z,88.62
2018-06-21T00:52:13.487Z,88.76
2018-06-21T00:55:26.628Z,89.14
2018-06-21T00:58:29.805Z,89.23
2018-06-21T01:01:32.890Z,89.46
2018-06-21T01:04:36.064Z,89.21
2018-06-21T01:07:39.262Z,89.00
2018-06-21T01:10:42.465Z,89.56
2018-06-21T01:13:47.703Z,89.32
2018-06-21T01:16:50.818Z,88.87
2018-06-21T01:19:54.917Z,88.89
2018-06-21T01:22:58.101Z,89.33
2018-06-21T01:26:01.171Z,90.32
2018-06-21T01:29:04.317Z,90.12
2018-06-21T01:32:07.822Z,89.53
2018-06-21T01:35:10.873Z,90.00
2018-06-21T01:38:14.053Z,89.78
2018-06-21T01:41:17.277Z,89.13
2018-06-21T01:44:20.488Z,88.60
2018-06-21T01:47:23.573Z,88.95
2018-06-21T01:50:27.896Z,88.98
2018-06-21T01:53:31.120Z,88.79
2018-06-21T01:56:34.453Z,88.57
2018-06-21T01:59:39.708Z,89.08
2018-06-21T02:02:43.812Z,89.11
2018-06-21T02:05:47.003Z,88.24
2018-06-21T02:08:50.127Z,88.99
2018-06-21T02:11:53.236Z,89.11
2018-06-21T02:14:56.463Z,90.18
2018-06-21T02:18:00.579Z,89.33
2018-06-21T02:21:04.916Z,89.71
2018-06-21T02:24:08.080Z,89.92
2018-06-21T02:27:12.021Z,89.50
2018-06-21T02:30:17.116Z,89.00
2018-06-21T02:33:21.021Z,89.59
2018-06-21T02:36:24.268Z,89.61
2018-06-21T02:39:27.344Z,89.59
2018-06-21T02:42:30.506Z,89.72
2018-06-21T02:45:34.817Z,88.60
2018-06-21T02:48:38.102Z,88.75
2018-06-21T02:51:41.258Z,88.95
2018-06-21T02:54:44.425Z,89.13
2018-06-21T02:57:48.507Z,89.04
2018-06-21T03:00:52.598Z,88.66
2018-06-21T03:03:55.752Z,88.34
2018-06-21T03:07:00.224Z,88.47
2018-06-21T03:10:03.500Z,87.99
2018-06-21T03:13:06.562Z,87.71
2018-06-21T03:16:09.833Z,88.57
2018-06-21T03:19:12.909Z,88.50
2018-06-21T03:22:16.036Z,87.92
2018-06-21T03:25:19.257Z,88.07
2018-06-21T03:28:23.315Z,87.56
2018-06-21T03:31:26.362Z,86.47
2018-06-21T03:34:30.529Z,86.74
2018-06-21T03:37:33.811Z,85.77
2018-06-21T03:40:36.929Z,85.10
2018-06-21T03:43:41.986Z,84.98
2018-06-21T03:46:45.039Z,85.43
2018-06-21T03:49:48.110Z,86.14
2018-06-21T03:52:51.195Z,85.71
2018-06-21T03:55:54.255Z,85.66
2018-06-21T03:58:58.362Z,84.93
2018-06-21T04:02:01.772Z,79.09
2018-06-21T04:05:04.959Z,73.18
2018-06-21T04:08:08.190Z,67.16
2018-06-21T04:11:11.168Z,63.87
2018-06-21T04:14:14.370Z,61.43
2018-06-21T04:17:17.469Z,58.53
2018-06-21T04:20:21.514Z,58.81
2018-06-21T04:23:24.627Z,58.62
2018-06-21T04:26:27.894Z,59.37
2018-06-21T04:29:31.220Z,61.33
2018-06-21T04:32:35.027Z,57.92
2018-06-21T04:35:38.124Z,59.57
2018-06-21T04:38:41.159Z,67.67
2018-06-21T04:41:44.408Z,73.98
2018-06-21T04:44:47.481Z,76.47
2018-06-21T04:47:50.484Z,69.25
2018-06-21T04:50:53.652Z,67.70
2018-06-21T04:53:56.954Z,70.58
2018-06-21T04:57:01.145Z,75.25
2018-06-21T05:00:04.664Z,77.79
2018-06-21T05:03:07.765Z,77.39
2018-06-21T05:06:12.915Z,78.33
2018-06-21T05:09:16.099Z,80.08
2018-06-21T05:12:21.424Z,81.64
2018-06-21T05:15:24.539Z,81.16
2018-06-21T05:18:27.729Z,76.13
2018-06-21T05:21:30.990Z,63.66
2018-06-21T05:24:34.029Z,68.98
2018-06-21T05:27:37.179Z,72.21
2018-06-21T05:30:40.415Z,68.25
2018-06-21T05:33:43.422Z,68.48
2018-06-21T05:36:46.539Z,59.96
2018-06-21T05:39:49.518Z,55.90
2018-06-21T05:42:52.720Z,53.24
2018-06-21T05:45:55.792Z,52.43
2018-06-21T05:48:58.889Z,54.18
2018-06-21T05:52:02.053Z,55.33
2018-06-21T05:55:06.271Z,55.58
2018-06-21T05:58:09.373Z,58.09
2018-06-21T06:01:14.455Z,60.84
2018-06-21T06:04:17.501Z,58.07
2018-06-21T06:07:20.758Z,59.43
2018-06-21T06:10:23.720Z,58.06
2018-06-21T06:13:26.947Z,54.45
2018-06-21T06:16:30.235Z,54.37
2018-06-21T06:19:33.575Z,51.35
2018-06-21T06:22:36.744Z,56.51
2018-06-21T06:25:39.898Z,57.86
2018-06-21T06:28:43.172Z,61.24
2018-06-21T06:31:46.154Z,59.00
2018-06-21T06:34:53.806Z,57.73
2018-06-21T06:37:57.631Z,58.16
2018-06-21T06:41:00.759Z,62.04
2018-06-21T06:44:03.925Z,63.20
2018-06-21T06:47:09.013Z,59.41
2018-06-21T06:50:12.072Z,58.88
2018-06-21T06:53:16.245Z,56.54
2018-06-21T06:56:19.397Z,56.80
2018-06-21T06:59:22.481Z,55.25
2018-06-21T07:02:25.679Z,54.98
2018-06-21T07:05:28.827Z,53.55
2018-06-21T07:08:32.138Z,52.17
2018-06-21T07:11:35.322Z,54.89
2018-06-21T07:14:38.555Z,54.00
2018-06-21T07:17:42.330Z,56.69
2018-06-21T07:20:45.689Z,57.67
2018-06-21T07:23:48.976Z,55.39
2018-06-21T07:26:54.138Z,59.58
2018-06-21T07:29:57.344Z,60.06
2018-06-21T07:33:00.568Z,55.81
2018-06-21T07:36:03.670Z,53.06
2018-06-21T07:39:07.684Z,54.73
2018-06-21T07:42:10.846Z,54.10
2018-06-21T07:45:13.975Z,55.37
2018-06-21T07:48:17.182Z,51.57
2018-06-21T07:51:20.273Z,56.02
2018-06-21T07:54:23.365Z,59.83
2018-06-21T07:57:26.508Z,60.00
2018-06-21T08:00:29.614Z,56.57
2018-06-21T08:03:32.838Z,58.63
2018-06-21T08:06:36.021Z,59.86
2018-06-21T08:09:39.095Z,59.37
2018-06-21T08:12:42.357Z,57.49
2018-06-21T08:15:45.548Z,59.19
2018-06-21T08:18:48.960Z,61.82
2018-06-21T08:21:52.022Z,60.79
2018-06-21T08:24:55.195Z,61.38
2018-06-21T08:27:58.387Z,61.08
2018-06-21T08:31:01.554Z,62.67
2018-06-21T08:34:04.705Z,64.04
2018-06-21T08:37:07.966Z,64.76
2018-06-21T08:40:11.064Z,63.28
2018-06-21T08:43:14.141Z,63.31
2018-06-21T08:46:17.316Z,64.05
2018-06-21T08:49:21.363Z,64.52
2018-06-21T08:52:24.497Z,68.21
2018-06-21T08:55:27.581Z,67.17
2018-06-21T08:58:30.980Z,66.63
2018-06-21T09:01:35.474Z,66.44
2018-06-21T09:04:38.565Z,67.52
2018-06-21T09:07:41.621Z,68.60
2018-06-21T09:10:44.725Z,70.08
2018-06-21T09:13:48.898Z,71.97
2018-06-21T09:16:52.057Z,73.51
2018-06-21T09:19:55.147Z,75.22
2018-06-21T09:22:58.228Z,75.77
2018-06-21T09:26:01.688Z,77.41
2018-06-21T09:29:06.028Z,78.38
2018-06-21T09:32:10.217Z,79.98
2018-06-21T09:35:13.401Z,83.31
2018-06-21T09:38:23.009Z,84.81
2018-06-21T09:41:31.724Z,86.73
2018-06-21T09:44:35.688Z,86.55
2018-06-21T09:47:44.557Z,85.26
2018-06-21T09:50:47.766Z,84.51
2018-06-21T09:53:50.877Z,83.73
2018-06-21T09:56:55.127Z,79.48
2018-06-21T09:59:58.319Z,75.10
2018-06-21T10:03:02.340Z,73.43
2018-06-21T10:06:05.481Z,72.19
2018-06-21T10:09:08.575Z,70.85
2018-06-21T10:12:11.626Z,69.90
2018-06-21T10:15:15.866Z,67.81
2018-06-21T10:18:18.955Z,66.83
2018-06-21T10:21:24.300Z,64.68
2018-06-21T10:24:27.456Z,64.25
2018-06-21T10:27:30.579Z,63.58
2018-06-21T10:30:33.753Z,63.74
2018-06-21T10:33:36.768Z,62.74
2018-06-21T10:36:39.888Z,59.75
2018-06-21T10:39:43.216Z,60.17
2018-06-21T10:42:46.400Z,59.06
2018-06-21T10:45:49.566Z,61.46
2018-06-21T10:48:53.747Z,61.66
2018-06-21T10:51:56.831Z,63.56
2018-06-21T10:55:00.054Z,62.87
2018-06-21T10:58:04.249Z,61.36
2018-06-21T11:01:07.406Z,61.27
2018-06-21T11:04:11.453Z,59.99
2018-06-21T11:07:15.804Z,59.83
2018-06-21T11:10:20.922Z,59.61
2018-06-21T11:13:24.096Z,57.68
2018-06-21T11:16:27.205Z,55.64
2018-06-21T11:19:30.357Z,54.42
2018-06-21T11:22:33.513Z,53.30
2018-06-21T11:25:36.642Z,50.36
2018-06-21T11:28:39.759Z,51.36
2018-06-21T11:31:42.997Z,52.22
2018-06-21T11:34:47.250Z,49.31
2018-06-21T11:37:50.464Z,49.22
2018-06-21T11:40:54.576Z,47.31
2018-06-21T11:43:58.723Z,47.21
2018-06-21T11:47:02.017Z,48.55
2018-06-21T11:50:05.400Z,49.29
2018-06-21T11:53:08.537Z,48.39
2018-06-21T11:56:11.681Z,43.20
2018-06-21T11:59:14.766Z,43.49
2018-06-21T12:02:17.872Z,43.61
2018-06-21T12:05:21.069Z,44.18
2018-06-21T12:08:25.202Z,45.56
2018-06-21T12:11:28.304Z,48.15
2018-06-21T12:14:32.476Z,48.41
2018-06-21T12:17:36.791Z,50.82
2018-06-21T12:20:39.984Z,51.55
2018-06-21T12:23:43.060Z,51.63
2018-06-21T12:26:46.546Z,48.20
2018-06-21T12:29:49.678Z,47.75
2018-06-21T12:32:54.000Z,47.32
2018-06-21T12:35:57.207Z,44.63
2018-06-21T12:39:00.547Z,45.57
2018-06-21T12:42:03.703Z,46.48
2018-06-21T12:45:06.888Z,46.01
2018-06-21T12:48:10.048Z,44.91
2018-06-21T12:51:13.155Z,42.70
2018-06-21T12:54:16.267Z,41.65
2018-06-21T12:57:19.488Z,43.12
2018-06-21T13:00:22.635Z,42.34
2018-06-21T13:03:26.636Z,44.35
2018-06-21T13:06:29.743Z,38.62
2018-06-21T13:12:47.645Z,37.60
2018-06-21T13:15:50.942Z,36.40
2018-06-21T13:18:55.222Z,36.58
2018-06-21T13:21:58.350Z,34.63
2018-06-21T13:25:01.617Z,33.13
2018-06-21T13:28:05.630Z,34.24
2018-06-21T13:31:08.824Z,33.63
2018-06-21T13:34:11.983Z,36.39
2018-06-21T13:37:15.630Z,36.78
2018-06-21T13:40:18.783Z,35.37
2018-06-21T13:43:21.944Z,35.43
2018-06-21T13:46:25.268Z,35.99
2018-06-21T13:49:28.250Z,35.43
2018-06-21T13:52:31.433Z,36.28
2018-06-21T13:55:34.836Z,35.54
2018-06-21T13:58:38.030Z,33.96
2018-06-21T14:01:41.295Z,34.23
2018-06-21T14:04:44.514Z,34.58
2018-06-21T14:07:47.969Z,35.47
2018-06-21T14:10:51.180Z,35.16
2018-06-21T14:13:56.724Z,34.17
2018-06-21T14:16:59.921Z,35.29
2018-06-21T14:20:03.268Z,33.32
2018-06-21T14:23:06.561Z,34.31
2018-06-21T14:26:09.560Z,32.13
2018-06-21T14:29:12.639Z,32.34
2018-06-21T14:32:15.818Z,33.14
2018-06-21T14:35:19.198Z,32.73
2018-06-21T14:38:22.255Z,32.57
2018-06-21T14:41:25.784Z,33.32
2018-06-21T14:44:28.892Z,33.49
2018-06-21T14:47:32.167Z,33.76
2018-06-21T14:50:35.253Z,34.25
2018-06-21T14:53:38.474Z,35.99
2018-06-21T14:56:41.758Z,34.58
2018-06-21T14:59:44.868Z,34.15
2018-06-21T15:02:48.155Z,33.65
2018-06-21T15:05:51.384Z,33.17
2018-06-21T15:08:54.459Z,32.31
2018-06-21T15:11:57.650Z,32.85
2018-06-21T15:15:00.920Z,32.26
2018-06-21T15:18:04.597Z,33.95
2018-06-21T15:21:07.849Z,31.90
2018-06-21T15:24:12.927Z,32.66
2018-06-21T15:27:16.011Z,31.76
2018-06-21T15:30:25.161Z,32.98
2018-06-21T15:33:32.771Z,32.83
2018-06-21T15:36:38.123Z,34.08
2018-06-21T15:39:44.305Z,34.76
2018-06-21T15:42:48.998Z,33.63
2018-06-21T15:45:54.880Z,32.71
2018-06-21T15:48:58.900Z,32.22
2018-06-21T15:52:11.285Z,33.18
2018-06-21T15:55:17.951Z,33.54
2018-06-21T15:58:23.631Z,34.51
2018-06-21T16:01:29.634Z,35.36
2018-06-21T16:04:37.828Z,33.65
2018-06-21T16:07:53.440Z,33.75
2018-06-21T16:10:59.320Z,35.63
2018-06-21T16:14:06.587Z,34.48
2018-06-21T16:17:15.670Z,34.36
2018-06-21T16:20:33.699Z,33.50
2018-06-21T16:30:02.964Z,34.69
2018-06-21T16:33:07.283Z,33.21
2018-06-21T16:36:13.780Z,32.37
2018-06-21T16:39:21.967Z,33.84
2018-06-21T16:42:26.460Z,33.99
2018-06-21T16:45:32.190Z,33.35
2018-06-21T16:48:38.004Z,34.23
2018-06-21T16:51:43.850Z,33.77
2018-06-21T16:54:49.990Z,35.83
2018-06-21T16:57:58.524Z,34.61
2018-06-21T17:01:04.709Z,34.25
2018-06-21T17:04:09.476Z,36.19
2018-06-21T17:07:17.895Z,33.65
2018-06-21T17:10:22.795Z,31.92
2018-06-21T17:13:28.379Z,31.95
2018-06-21T17:16:32.747Z,31.87
2018-06-21T17:19:38.586Z,33.06
2018-06-21T17:22:44.651Z,35.09
2018-06-21T17:25:49.009Z,34.84
2018-06-21T17:28:54.115Z,33.82
2018-06-21T17:32:11.841Z,34.43
2018-06-21T17:35:16.564Z,33.70
2018-06-21T17:38:21.079Z,34.56
2018-06-21T17:41:25.057Z,33.87
2018-06-21T17:44:30.215Z,37.01
2018-06-21T17:47:34.896Z,40.38
2018-06-21T17:50:46.534Z,41.58
2018-06-21T17:53:52.100Z,39.91
2018-06-21T17:56:57.187Z,39.48
2018-06-21T18:02:50.968Z,40.37
2018-06-21T18:06:00.748Z,39.86
2018-06-21T18:09:09.104Z,39.64
2018-06-21T18:12:14.014Z,40.80
2018-06-21T18:15:20.750Z,41.39
2018-06-21T18:18:24.694Z,41.39
2018-06-21T18:21:30.587Z,42.65
2018-06-21T18:24:36.081Z,42.08
2018-06-21T18:27:42.755Z,42.80
2018-06-21T18:30:49.573Z,43.07
2018-06-21T18:33:55.142Z,43.13
2018-06-21T18:37:00.039Z,44.25
2018-06-21T18:40:04.334Z,44.27
2018-06-21T18:43:09.301Z,44.52
2018-06-21T18:46:31.608Z,44.52
2018-06-21T18:49:35.961Z,46.48
2018-06-21T18:52:43.330Z,46.50
2018-06-21T18:55:51.286Z,47.81
2018-06-21T18:58:56.414Z,49.79
2018-06-21T19:01:59.823Z,48.98
2018-06-21T19:05:14.068Z,49.88
2018-06-21T19:08:25.746Z,50.71
2018-06-21T19:11:34.906Z,51.22
2018-06-21T19:14:38.703Z,51.17
2018-06-21T19:17:44.073Z,51.49
2018-06-21T19:20:48.456Z,51.04
2018-06-21T19:23:59.497Z,52.36
2018-06-21T19:27:06.885Z,52.75
2018-06-21T19:30:11.752Z,53.82
2018-06-21T19:33:26.174Z,54.54
2018-06-21T19:36:30.416Z,55.17
2018-06-21T19:39:39.531Z,55.22
2018-06-21T19:43:00.120Z,55.06
2018-06-21T19:46:39.730Z,54.80
2018-06-21T19:49:43.849Z,54.51
2018-06-21T19:52:48.089Z,55.22
2018-06-21T19:55:52.766Z,56.08
2018-06-21T19:58:57.868Z,56.24
2018-06-21T20:02:04.063Z,55.84
2018-06-21T20:05:08.903Z,57.27
2018-06-21T20:08:15.861Z,56.92
2018-06-21T20:11:25.938Z,56.64
2018-06-21T20:14:30.292Z,57.54
2018-06-21T20:17:35.188Z,58.29
2018-06-21T20:20:45.795Z,57.62
2018-06-21T20:23:52.085Z,59.36
2018-06-21T20:26:58.084Z,59.34
2018-06-21T20:30:01.129Z,58.75
2018-06-21T20:33:12.481Z,58.90
2018-06-21T20:36:16.660Z,59.20
2018-06-21T20:39:21.679Z,60.10
2018-06-21T20:42:27.983Z,60.71
2018-06-21T20:45:35.093Z,61.64
2018-06-21T20:48:41.959Z,61.42
2018-06-21T20:51:46.406Z,61.32
2018-06-21T20:54:52.692Z,61.23
2018-06-21T20:57:59.549Z,62.66
2018-06-21T21:01:03.774Z,63.62
2018-06-21T21:04:07.908Z,65.13
2018-06-21T21:07:12.398Z,65.17
2018-06-21T21:10:20.921Z,67.15
2018-06-21T21:13:26.753Z,64.32
2018-06-21T21:16:31.677Z,66.75
2018-06-21T21:19:38.500Z,68.82
2018-06-21T21:22:45.891Z,69.41
2018-06-21T21:25:50.073Z,70.24
2018-06-21T21:28:56.911Z,70.60
2018-06-21T21:32:01.098Z,71.80
2018-06-21T21:35:11.615Z,71.18
2018-06-21T21:38:17.214Z,68.78
2018-06-21T21:41:24.528Z,70.65
2018-06-21T21:44:35.704Z,69.69
2018-06-21T21:47:40.999Z,69.25
2018-06-21T21:50:45.083Z,66.89
2018-06-21T21:53:49.606Z,65.11
2018-06-21T22:04:25.607Z,63.25
2018-06-21T22:07:29.465Z,62.86
2018-06-21T22:10:32.524Z,63.11
2018-06-21T22:13:36.400Z,62.82
2018-06-21T22:16:41.215Z,63.35
2018-06-21T22:19:44.960Z,64.11
2018-06-21T22:22:48.530Z,65.10
2018-06-21T22:25:53.783Z,66.85
2018-06-21T22:28:57.205Z,67.59
2018-06-21T22:32:01.833Z,66.21
2018-06-21T22:35:05.604Z,66.45
2018-06-21T22:38:10.110Z,67.17
2018-06-21T22:44:22.749Z,67.83
2018-06-21T22:47:26.847Z,67.95
2018-06-21T22:50:30.908Z,69.11
2018-06-21T22:53:37.078Z,68.85
2018-06-21T22:56:41.557Z,68.78
2018-06-21T22:59:45.188Z,69.15
2018-06-21T23:02:49.128Z,68.98
2018-06-21T23:05:58.559Z,68.53
2018-06-21T23:09:03.478Z,69.65
2018-06-21T23:12:07.160Z,69.78
2018-06-21T23:15:10.724Z,70.60
2018-06-21T23:18:24.141Z,70.95
2018-06-21T23:21:28.211Z,70.84
2018-06-21T23:24:31.527Z,72.28
2018-06-21T23:27:36.436Z,72.60
2018-06-21T23:30:41.283Z,73.43
2018-06-21T23:33:45.958Z,73.14
2018-06-21T23:36:52.766Z,74.06
2018-06-21T23:39:56.351Z,75.02
2018-06-21T23:43:18.303Z,77.39
2018-06-21T23:46:23.631Z,78.41
2018-06-21T23:49:28.015Z,79.35
2018-06-21T23:52:32.831Z,81.36
2018-06-21T23:55:36.350Z,80.40
2018-06-21T23:58:40.588Z,80.90
